Defiance, OH

12:58 PM EST on February 27, 2015 (GMT -0500)
Defiance Memorial | Change Station
CLOSE
Current Station
Airport
Location: Defiance,
Elevation: 705 ft
Nearby Weather Stations

Elev 705 ft 41.34 °N, 84.43 °W | Updated 5 minutes ago

Clear
Clear
13 °F
Feels Like 3 °F
N
7
Wind Variable Wind from WNW

Today
High -- | Low -- °F
--% Chance of Precip.
Yesterday
High -- | Low -- °F
Precip. -- in
7:15 AM 6:25 PM
Waxing Gibbous, 70% visible
Pressure 30.65 in
Visibility 10.0 miles
Clouds Clear
Windchill 3 °F
Dew Point -3 °F
Humidity 49%
Rainfall 0.00 in
Snow Depth Not available.
UV 5 out of 12
Pollen .40 out of 12
Air Quality Not available.
Flu Activity Not available.
METAR KDFI 271753Z AUTO 30006KT 10SM CLR M11/M19 A3060 RMK AO2 SLP379 60000 T11061194 11100 21228 51016

More Conditions Fewer Conditions

Pressure 30.65 in
Visibility 10.0 miles
Clouds Clear
Windchill 3 °F
Dew Point -3 °F
Humidity 49%
Rainfall 0.00 in
Snow Depth Not available.
UV 5 out of 12
Pollen .40 out of 12
Air Quality Not available.
Flu Activity Not available.
METAR KDFI 271753Z AUTO 30006KT 10SM CLR M11/M19 A3060 RMK AO2 SLP379 60000 T11061194 11100 21228 51016

More Conditions Fewer Conditions

10-Day Weather Forecast

Almanac

Astronomy

Feb. 27, 2015 Rise Set
Actual Time
Civil Twilight
Nautical Twilight
Astronomical Twilight
Moon
Length of Visible Light
Length of Day
Tomorrow will be .
, % of the Moon is Illuminated

Today's Extremes

State Highs State Lows

Community

WunderPhotos

Upload Photos

1,800,758 photos uploaded!

WunderBlogs® & News

Nearby

Air Quality

  Air Quality AQ Index Pollutant
Not available.

Snow Depth

Station Depth Elevation

Earthquake Activity

City Distance Mag. Time & Date
Minimum magnitude displayed is 2.5.

Coastal Water Temperatures

Place Temperature

Nearby Weather Stations